sensor_id;sensor_type;location;lat;lon;timestamp;P1;durP1;ratioP1;P2;durP2;ratioP2
18596;SDS011;9428;50.950;6.912;2022-07-23T00:00:51;26.00;;;16.10;;
18596;SDS011;9428;50.950;6.912;2022-07-23T00:03:40;23.63;;;15.52;;
18596;SDS011;9428;50.950;6.912;2022-07-23T00:06:27;27.13;;;18.65;;
18596;SDS011;9428;50.950;6.912;2022-07-23T00:09:15;28.50;;;17.00;;
18596;SDS011;9428;50.950;6.912;2022-07-23T00:12:02;27.77;;;17.90;;
18596;SDS011;9428;50.950;6.912;2022-07-23T00:14:50;27.48;;;18.65;;
18596;SDS011;9428;50.950;6.912;2022-07-23T00:17:37;32.92;;;19.27;;
18596;SDS011;9428;50.950;6.912;2022-07-23T00:20:26;35.58;;;20.88;;
18596;SDS011;9428;50.950;6.912;2022-07-23T00:23:13;34.08;;;20.30;;
18596;SDS011;9428;50.950;6.912;2022-07-23T00:26:01;34.67;;;21.35;;
18596;SDS011;9428;50.950;6.912;2022-07-23T00:28:48;29.50;;;20.48;;
18596;SDS011;9428;50.950;6.912;2022-07-23T00:31:35;31.63;;;20.85;;
18596;SDS011;9428;50.950;6.912;2022-07-23T00:34:22;29.65;;;19.75;;
18596;SDS011;9428;50.950;6.912;2022-07-23T00:37:11;30.00;;;20.67;;
18596;SDS011;9428;50.950;6.912;2022-07-23T00:39:58;33.67;;;19.65;;
18596;SDS011;9428;50.950;6.912;2022-07-23T00:42:45;31.15;;;19.27;;
18596;SDS011;9428;50.950;6.912;2022-07-23T00:45:33;30.77;;;17.65;;
18596;SDS011;9428;50.950;6.912;2022-07-23T00:48:20;27.38;;;17.02;;
18596;SDS011;9428;50.950;6.912;2022-07-23T00:51:07;27.75;;;17.77;;
18596;SDS011;9428;50.950;6.912;2022-07-23T00:53:56;29.77;;;18.67;;
18596;SDS011;9428;50.950;6.912;2022-07-23T00:56:44;26.67;;;17.50;;
18596;SDS011;9428;50.950;6.912;2022-07-23T00:59:31;24.73;;;17.60;;
18596;SDS011;9428;50.950;6.912;2022-07-23T01:02:19;25.02;;;17.38;;
18596;SDS011;9428;50.950;6.912;2022-07-23T01:05:06;25.98;;;16.55;;
18596;SDS011;9428;50.950;6.912;2022-07-23T01:07:54;24.08;;;16.15;;
18596;SDS011;9428;50.950;6.912;2022-07-23T01:10:43;22.40;;;15.32;;
18596;SDS011;9428;50.950;6.912;2022-07-23T01:13:30;31.73;;;19.17;;
18596;SDS011;9428;50.950;6.912;2022-07-23T01:16:18;25.33;;;17.05;;
18596;SDS011;9428;50.950;6.912;2022-07-23T01:19:05;23.70;;;14.38;;
18596;SDS011;9428;50.950;6.912;2022-07-23T01:21:53;19.60;;;13.90;;
18596;SDS011;9428;50.950;6.912;2022-07-23T01:24:42;20.92;;;14.07;;
18596;SDS011;9428;50.950;6.912;2022-07-23T01:27:30;21.20;;;14.38;;
18596;SDS011;9428;50.950;6.912;2022-07-23T01:30:17;20.23;;;13.32;;
18596;SDS011;9428;50.950;6.912;2022-07-23T01:33:04;17.63;;;12.45;;
18596;SDS011;9428;50.950;6.912;2022-07-23T01:35:52;22.45;;;14.00;;
18596;SDS011;9428;50.950;6.912;2022-07-23T01:38:39;22.27;;;14.55;;
18596;SDS011;9428;50.950;6.912;2022-07-23T01:41:28;21.65;;;13.55;;
18596;SDS011;9428;50.950;6.912;2022-07-23T01:44:15;15.95;;;12.38;;
18596;SDS011;9428;50.950;6.912;2022-07-23T01:47:02;22.42;;;12.88;;
18596;SDS011;9428;50.950;6.912;2022-07-23T01:49:50;23.75;;;12.73;;
18596;SDS011;9428;50.950;6.912;2022-07-23T01:52:37;18.02;;;12.68;;
18596;SDS011;9428;50.950;6.912;2022-07-23T01:55:24;18.20;;;12.63;;
18596;SDS011;9428;50.950;6.912;2022-07-23T01:58:13;19.58;;;13.55;;
18596;SDS011;9428;50.950;6.912;2022-07-23T02:01:00;21.67;;;13.80;;
18596;SDS011;9428;50.950;6.912;2022-07-23T02:03:48;22.38;;;14.35;;
18596;SDS011;9428;50.950;6.912;2022-07-23T02:06:35;19.92;;;14.18;;
18596;SDS011;9428;50.950;6.912;2022-07-23T02:09:25;20.95;;;14.40;;
18596;SDS011;9428;50.950;6.912;2022-07-23T02:12:12;22.63;;;14.93;;
18596;SDS011;9428;50.950;6.912;2022-07-23T02:15:01;20.65;;;14.27;;
18596;SDS011;9428;50.950;6.912;2022-07-23T02:17:48;23.70;;;16.08;;
18596;SDS011;9428;50.950;6.912;2022-07-23T02:20:35;26.10;;;16.45;;
18596;SDS011;9428;50.950;6.912;2022-07-23T02:23:23;28.30;;;15.70;;
18596;SDS011;9428;50.950;6.912;2022-07-23T02:26:11;24.52;;;16.60;;
18596;SDS011;9428;50.950;6.912;2022-07-23T02:28:58;26.85;;;16.73;;
18596;SDS011;9428;50.950;6.912;2022-07-23T02:31:47;25.83;;;16.77;;
18596;SDS011;9428;50.950;6.912;2022-07-23T02:34:34;30.83;;;17.25;;
18596;SDS011;9428;50.950;6.912;2022-07-23T02:37:21;28.25;;;16.80;;
18596;SDS011;9428;50.950;6.912;2022-07-23T02:40:09;24.15;;;15.70;;
18596;SDS011;9428;50.950;6.912;2022-07-23T02:42:57;28.55;;;18.08;;
18596;SDS011;9428;50.950;6.912;2022-07-23T02:45:44;28.27;;;16.17;;
18596;SDS011;9428;50.950;6.912;2022-07-23T02:48:33;27.67;;;18.30;;
18596;SDS011;9428;50.950;6.912;2022-07-23T02:51:20;27.65;;;17.45;;
18596;SDS011;9428;50.950;6.912;2022-07-23T02:54:07;24.20;;;17.10;;
18596;SDS011;9428;50.950;6.912;2022-07-23T02:56:55;25.00;;;17.60;;
18596;SDS011;9428;50.950;6.912;2022-07-23T02:59:42;27.52;;;18.75;;
18596;SDS011;9428;50.950;6.912;2022-07-23T03:02:29;27.20;;;17.92;;
18596;SDS011;9428;50.950;6.912;2022-07-23T03:05:18;26.90;;;17.40;;
18596;SDS011;9428;50.950;6.912;2022-07-23T03:08:05;25.38;;;17.60;;
18596;SDS011;9428;50.950;6.912;2022-07-23T03:10:52;30.42;;;18.52;;
18596;SDS011;9428;50.950;6.912;2022-07-23T03:13:40;28.63;;;18.85;;
18596;SDS011;9428;50.950;6.912;2022-07-23T03:16:27;28.15;;;18.23;;
18596;SDS011;9428;50.950;6.912;2022-07-23T03:19:15;33.85;;;18.55;;
18596;SDS011;9428;50.950;6.912;2022-07-23T03:22:03;29.30;;;18.30;;
18596;SDS011;9428;50.950;6.912;2022-07-23T03:24:51;29.92;;;16.92;;
18596;SDS011;9428;50.950;6.912;2022-07-23T03:27:40;27.60;;;18.65;;
18596;SDS011;9428;50.950;6.912;2022-07-23T03:30:28;28.60;;;19.20;;
18596;SDS011;9428;50.950;6.912;2022-07-23T03:33:15;29.25;;;18.75;;
18596;SDS011;9428;50.950;6.912;2022-07-23T03:36:04;30.20;;;19.42;;
18596;SDS011;9428;50.950;6.912;2022-07-23T03:38:53;27.13;;;18.77;;
18596;SDS011;9428;50.950;6.912;2022-07-23T03:41:40;31.33;;;20.50;;
18596;SDS011;9428;50.950;6.912;2022-07-23T03:44:27;31.25;;;20.02;;
18596;SDS011;9428;50.950;6.912;2022-07-23T03:47:14;31.17;;;19.73;;
18596;SDS011;9428;50.950;6.912;2022-07-23T03:50:02;34.80;;;21.67;;
18596;SDS011;9428;50.950;6.912;2022-07-23T03:52:50;33.65;;;22.30;;
18596;SDS011;9428;50.950;6.912;2022-07-23T03:55:39;37.53;;;22.63;;
18596;SDS011;9428;50.950;6.912;2022-07-23T03:58:26;33.50;;;21.45;;
18596;SDS011;9428;50.950;6.912;2022-07-23T04:01:14;42.08;;;23.45;;
18596;SDS011;9428;50.950;6.912;2022-07-23T04:04:01;36.63;;;23.23;;
18596;SDS011;9428;50.950;6.912;2022-07-23T04:06:48;33.88;;;21.67;;
18596;SDS011;9428;50.950;6.912;2022-07-23T04:09:36;39.75;;;23.05;;
18596;SDS011;9428;50.950;6.912;2022-07-23T04:12:24;37.97;;;22.15;;
18596;SDS011;9428;50.950;6.912;2022-07-23T04:15:12;36.97;;;23.30;;
18596;SDS011;9428;50.950;6.912;2022-07-23T04:17:59;36.25;;;21.52;;
18596;SDS011;9428;50.950;6.912;2022-07-23T04:20:46;39.53;;;22.23;;
18596;SDS011;9428;50.950;6.912;2022-07-23T04:23:33;42.95;;;22.63;;
18596;SDS011;9428;50.950;6.912;2022-07-23T04:26:21;38.75;;;23.85;;
18596;SDS011;9428;50.950;6.912;2022-07-23T04:29:09;40.55;;;22.38;;
18596;SDS011;9428;50.950;6.912;2022-07-23T04:31:57;40.13;;;23.52;;
18596;SDS011;9428;50.950;6.912;2022-07-23T04:34:44;39.55;;;22.75;;
18596;SDS011;9428;50.950;6.912;2022-07-23T04:37:31;41.30;;;24.33;;
18596;SDS011;9428;50.950;6.912;2022-07-23T04:40:19;37.05;;;23.40;;
18596;SDS011;9428;50.950;6.912;2022-07-23T04:43:06;36.70;;;23.83;;
18596;SDS011;9428;50.950;6.912;2022-07-23T04:45:55;41.53;;;23.48;;
18596;SDS011;9428;50.950;6.912;2022-07-23T04:48:42;40.05;;;23.15;;
18596;SDS011;9428;50.950;6.912;2022-07-23T04:51:29;42.75;;;24.42;;
18596;SDS011;9428;50.950;6.912;2022-07-23T04:54:17;39.20;;;24.08;;
18596;SDS011;9428;50.950;6.912;2022-07-23T04:57:05;39.00;;;23.83;;
18596;SDS011;9428;50.950;6.912;2022-07-23T04:59:52;38.85;;;23.98;;
18596;SDS011;9428;50.950;6.912;2022-07-23T05:02:40;36.28;;;22.63;;
18596;SDS011;9428;50.950;6.912;2022-07-23T05:05:28;43.38;;;24.33;;
18596;SDS011;9428;50.950;6.912;2022-07-23T05:08:15;43.10;;;24.15;;
18596;SDS011;9428;50.950;6.912;2022-07-23T05:11:02;38.72;;;24.77;;
18596;SDS011;9428;50.950;6.912;2022-07-23T05:13:50;35.35;;;22.52;;
18596;SDS011;9428;50.950;6.912;2022-07-23T05:16:37;39.97;;;23.60;;
18596;SDS011;9428;50.950;6.912;2022-07-23T05:19:26;39.53;;;23.60;;
18596;SDS011;9428;50.950;6.912;2022-07-23T05:22:13;42.63;;;22.92;;
18596;SDS011;9428;50.950;6.912;2022-07-23T05:25:01;43.42;;;22.55;;
18596;SDS011;9428;50.950;6.912;2022-07-23T05:27:50;41.63;;;21.90;;
18596;SDS011;9428;50.950;6.912;2022-07-23T05:30:37;42.05;;;23.52;;
18596;SDS011;9428;50.950;6.912;2022-07-23T05:33:24;35.70;;;22.20;;
18596;SDS011;9428;50.950;6.912;2022-07-23T05:36:13;38.92;;;22.13;;
18596;SDS011;9428;50.950;6.912;2022-07-23T05:39:00;37.58;;;21.05;;
18596;SDS011;9428;50.950;6.912;2022-07-23T05:41:48;33.85;;;20.88;;
18596;SDS011;9428;50.950;6.912;2022-07-23T05:44:35;34.35;;;20.77;;
18596;SDS011;9428;50.950;6.912;2022-07-23T05:47:22;34.83;;;21.35;;
18596;SDS011;9428;50.950;6.912;2022-07-23T05:50:10;36.22;;;19.52;;
18596;SDS011;9428;50.950;6.912;2022-07-23T05:52:59;34.22;;;19.90;;
18596;SDS011;9428;50.950;6.912;2022-07-23T05:55:46;34.53;;;20.63;;
18596;SDS011;9428;50.950;6.912;2022-07-23T05:58:33;32.50;;;19.75;;
18596;SDS011;9428;50.950;6.912;2022-07-23T06:01:21;32.50;;;20.55;;
18596;SDS011;9428;50.950;6.912;2022-07-23T06:04:08;35.28;;;19.35;;
18596;SDS011;9428;50.950;6.912;2022-07-23T06:06:55;38.38;;;20.85;;
18596;SDS011;9428;50.950;6.912;2022-07-23T06:09:44;35.45;;;20.58;;
18596;SDS011;9428;50.950;6.912;2022-07-23T06:12:32;28.90;;;19.00;;
18596;SDS011;9428;50.950;6.912;2022-07-23T06:15:19;31.13;;;18.92;;
18596;SDS011;9428;50.950;6.912;2022-07-23T06:18:06;32.17;;;19.25;;
18596;SDS011;9428;50.950;6.912;2022-07-23T06:20:54;32.30;;;17.75;;
18596;SDS011;9428;50.950;6.912;2022-07-23T06:23:41;29.35;;;17.88;;
18596;SDS011;9428;50.950;6.912;2022-07-23T06:26:30;29.42;;;18.55;;
18596;SDS011;9428;50.950;6.912;2022-07-23T06:29:17;29.20;;;18.08;;
18596;SDS011;9428;50.950;6.912;2022-07-23T06:32:04;30.48;;;16.88;;
18596;SDS011;9428;50.950;6.912;2022-07-23T06:34:52;28.85;;;17.95;;
18596;SDS011;9428;50.950;6.912;2022-07-23T06:37:39;31.60;;;18.75;;
18596;SDS011;9428;50.950;6.912;2022-07-23T06:40:26;24.63;;;16.25;;
18596;SDS011;9428;50.950;6.912;2022-07-23T06:43:15;31.60;;;16.63;;
18596;SDS011;9428;50.950;6.912;2022-07-23T06:46:02;25.05;;;16.65;;
18596;SDS011;9428;50.950;6.912;2022-07-23T06:48:50;23.50;;;15.52;;
18596;SDS011;9428;50.950;6.912;2022-07-23T06:51:37;24.48;;;15.95;;
18596;SDS011;9428;50.950;6.912;2022-07-23T06:54:24;20.38;;;13.90;;
18596;SDS011;9428;50.950;6.912;2022-07-23T06:57:11;25.10;;;15.43;;
18596;SDS011;9428;50.950;6.912;2022-07-23T07:00:00;24.98;;;14.93;;
18596;SDS011;9428;50.950;6.912;2022-07-23T07:02:47;22.58;;;15.55;;
18596;SDS011;9428;50.950;6.912;2022-07-23T07:05:35;26.40;;;16.08;;
18596;SDS011;9428;50.950;6.912;2022-07-23T07:08:22;22.25;;;14.38;;
18596;SDS011;9428;50.950;6.912;2022-07-23T07:11:09;24.30;;;14.90;;
18596;SDS011;9428;50.950;6.912;2022-07-23T07:13:57;24.60;;;14.68;;
18596;SDS011;9428;50.950;6.912;2022-07-23T07:16:46;21.00;;;13.73;;
18596;SDS011;9428;50.950;6.912;2022-07-23T07:19:33;23.65;;;15.13;;
18596;SDS011;9428;50.950;6.912;2022-07-23T07:22:20;22.85;;;12.40;;
18596;SDS011;9428;50.950;6.912;2022-07-23T07:25:07;20.63;;;13.13;;
18596;SDS011;9428;50.950;6.912;2022-07-23T07:27:55;23.23;;;12.68;;
18596;SDS011;9428;50.950;6.912;2022-07-23T07:30:42;22.20;;;14.23;;
18596;SDS011;9428;50.950;6.912;2022-07-23T07:33:31;19.23;;;11.65;;
18596;SDS011;9428;50.950;6.912;2022-07-23T07:36:18;21.10;;;13.18;;
18596;SDS011;9428;50.950;6.912;2022-07-23T07:39:05;16.05;;;10.65;;
18596;SDS011;9428;50.950;6.912;2022-07-23T07:41:55;15.82;;;9.98;;
18596;SDS011;9428;50.950;6.912;2022-07-23T07:44:43;19.80;;;9.65;;
18596;SDS011;9428;50.950;6.912;2022-07-23T07:47:30;12.90;;;8.07;;
18596;SDS011;9428;50.950;6.912;2022-07-23T07:50:19;14.18;;;9.68;;
18596;SDS011;9428;50.950;6.912;2022-07-23T07:53:06;14.30;;;9.25;;
18596;SDS011;9428;50.950;6.912;2022-07-23T07:55:54;10.55;;;7.35;;
18596;SDS011;9428;50.950;6.912;2022-07-23T07:58:41;10.45;;;7.22;;
18596;SDS011;9428;50.950;6.912;2022-07-23T08:01:28;13.07;;;8.95;;
18596;SDS011;9428;50.950;6.912;2022-07-23T08:04:16;12.27;;;8.00;;
18596;SDS011;9428;50.950;6.912;2022-07-23T08:07:04;14.90;;;10.45;;
18596;SDS011;9428;50.950;6.912;2022-07-23T08:09:51;16.52;;;11.07;;
18596;SDS011;9428;50.950;6.912;2022-07-23T08:12:39;16.63;;;11.55;;
18596;SDS011;9428;50.950;6.912;2022-07-23T08:15:28;23.67;;;12.77;;
18596;SDS011;9428;50.950;6.912;2022-07-23T08:18:17;19.95;;;13.35;;
18596;SDS011;9428;50.950;6.912;2022-07-23T08:21:04;19.33;;;12.27;;
18596;SDS011;9428;50.950;6.912;2022-07-23T08:23:53;19.65;;;11.00;;
18596;SDS011;9428;50.950;6.912;2022-07-23T08:26:40;21.50;;;12.68;;
18596;SDS011;9428;50.950;6.912;2022-07-23T08:29:27;17.10;;;11.70;;
18596;SDS011;9428;50.950;6.912;2022-07-23T08:32:15;21.10;;;13.77;;
18596;SDS011;9428;50.950;6.912;2022-07-23T08:35:02;16.23;;;11.70;;
18596;SDS011;9428;50.950;6.912;2022-07-23T08:37:50;16.88;;;12.57;;
18596;SDS011;9428;50.950;6.912;2022-07-23T08:40:39;15.95;;;11.85;;
18596;SDS011;9428;50.950;6.912;2022-07-23T08:43:28;16.42;;;12.98;;
18596;SDS011;9428;50.950;6.912;2022-07-23T08:46:18;20.83;;;14.63;;
18596;SDS011;9428;50.950;6.912;2022-07-23T08:49:06;22.48;;;14.50;;
18596;SDS011;9428;50.950;6.912;2022-07-23T08:51:54;21.13;;;15.05;;
18596;SDS011;9428;50.950;6.912;2022-07-23T08:54:42;19.20;;;14.00;;
18596;SDS011;9428;50.950;6.912;2022-07-23T08:57:31;20.40;;;14.85;;
18596;SDS011;9428;50.950;6.912;2022-07-23T09:00:19;22.92;;;17.08;;
18596;SDS011;9428;50.950;6.912;2022-07-23T09:03:08;23.38;;;16.52;;
18596;SDS011;9428;50.950;6.912;2022-07-23T09:06:03;25.25;;;17.80;;
18596;SDS011;9428;50.950;6.912;2022-07-23T09:08:50;23.10;;;16.55;;
18596;SDS011;9428;50.950;6.912;2022-07-23T09:11:37;18.70;;;15.57;;
18596;SDS011;9428;50.950;6.912;2022-07-23T09:14:36;21.88;;;18.45;;
18596;SDS011;9428;50.950;6.912;2022-07-23T09:17:25;19.50;;;16.02;;
18596;SDS011;9428;50.950;6.912;2022-07-23T09:20:13;20.30;;;15.18;;
18596;SDS011;9428;50.950;6.912;2022-07-23T09:23:01;21.77;;;15.85;;
18596;SDS011;9428;50.950;6.912;2022-07-23T09:25:49;21.50;;;15.60;;
18596;SDS011;9428;50.950;6.912;2022-07-23T09:28:45;17.52;;;12.25;;
18596;SDS011;9428;50.950;6.912;2022-07-23T09:31:44;19.20;;;15.40;;
18596;SDS011;9428;50.950;6.912;2022-07-23T09:34:34;18.45;;;15.45;;
18596;SDS011;9428;50.950;6.912;2022-07-23T09:37:24;18.08;;;14.55;;
18596;SDS011;9428;50.950;6.912;2022-07-23T09:40:11;17.20;;;13.60;;
18596;SDS011;9428;50.950;6.912;2022-07-23T09:43:01;18.33;;;13.63;;
18596;SDS011;9428;50.950;6.912;2022-07-23T09:45:49;16.90;;;13.85;;
18596;SDS011;9428;50.950;6.912;2022-07-23T09:48:37;14.98;;;12.75;;
18596;SDS011;9428;50.950;6.912;2022-07-23T09:51:24;17.10;;;13.35;;
18596;SDS011;9428;50.950;6.912;2022-07-23T09:54:22;18.40;;;12.82;;
18596;SDS011;9428;50.950;6.912;2022-07-23T09:57:17;17.65;;;11.73;;
18596;SDS011;9428;50.950;6.912;2022-07-23T10:00:07;17.00;;;11.40;;
18596;SDS011;9428;50.950;6.912;2022-07-23T10:02:55;13.13;;;10.68;;
18596;SDS011;9428;50.950;6.912;2022-07-23T10:05:46;11.90;;;9.13;;
18596;SDS011;9428;50.950;6.912;2022-07-23T10:08:34;17.17;;;11.18;;
18596;SDS011;9428;50.950;6.912;2022-07-23T10:11:22;15.10;;;12.10;;
18596;SDS011;9428;50.950;6.912;2022-07-23T10:14:12;14.07;;;10.52;;
18596;SDS011;9428;50.950;6.912;2022-07-23T10:17:00;15.35;;;9.57;;
18596;SDS011;9428;50.950;6.912;2022-07-23T10:19:48;13.90;;;10.00;;
18596;SDS011;9428;50.950;6.912;2022-07-23T10:22:37;13.20;;;9.90;;
18596;SDS011;9428;50.950;6.912;2022-07-23T10:25:30;11.02;;;9.77;;
18596;SDS011;9428;50.950;6.912;2022-07-23T10:28:28;13.20;;;10.05;;
18596;SDS011;9428;50.950;6.912;2022-07-23T10:31:37;13.13;;;10.07;;
18596;SDS011;9428;50.950;6.912;2022-07-23T10:34:36;12.45;;;9.88;;
18596;SDS011;9428;50.950;6.912;2022-07-23T10:37:32;18.05;;;9.43;;
18596;SDS011;9428;50.950;6.912;2022-07-23T10:40:26;14.32;;;8.90;;
18596;SDS011;9428;50.950;6.912;2022-07-23T10:43:15;14.73;;;9.65;;
18596;SDS011;9428;50.950;6.912;2022-07-23T10:46:21;13.35;;;9.88;;
18596;SDS011;9428;50.950;6.912;2022-07-23T10:49:21;15.07;;;11.27;;
18596;SDS011;9428;50.950;6.912;2022-07-23T10:58:46;15.93;;;8.23;;
18596;SDS011;9428;50.950;6.912;2022-07-23T11:01:36;11.82;;;8.70;;
18596;SDS011;9428;50.950;6.912;2022-07-23T11:07:35;11.50;;;10.05;;
18596;SDS011;9428;50.950;6.912;2022-07-23T11:10:33;13.65;;;9.32;;
18596;SDS011;9428;50.950;6.912;2022-07-23T11:13:29;12.35;;;9.55;;
18596;SDS011;9428;50.950;6.912;2022-07-23T11:16:20;12.77;;;7.97;;
18596;SDS011;9428;50.950;6.912;2022-07-23T11:19:10;12.02;;;7.22;;
18596;SDS011;9428;50.950;6.912;2022-07-23T11:21:58;10.88;;;8.55;;
18596;SDS011;9428;50.950;6.912;2022-07-23T11:24:50;9.68;;;8.35;;
18596;SDS011;9428;50.950;6.912;2022-07-23T11:27:38;10.98;;;8.80;;
18596;SDS011;9428;50.950;6.912;2022-07-23T11:30:38;12.10;;;7.57;;
18596;SDS011;9428;50.950;6.912;2022-07-23T11:33:27;7.93;;;5.90;;
18596;SDS011;9428;50.950;6.912;2022-07-23T11:36:14;10.25;;;8.32;;
18596;SDS011;9428;50.950;6.912;2022-07-23T11:39:02;7.28;;;6.25;;
18596;SDS011;9428;50.950;6.912;2022-07-23T11:41:50;9.43;;;6.00;;
18596;SDS011;9428;50.950;6.912;2022-07-23T11:44:38;6.25;;;5.65;;
18596;SDS011;9428;50.950;6.912;2022-07-23T11:47:27;9.77;;;6.65;;
18596;SDS011;9428;50.950;6.912;2022-07-23T11:50:14;6.45;;;4.78;;
18596;SDS011;9428;50.950;6.912;2022-07-23T11:53:01;7.80;;;5.30;;
18596;SDS011;9428;50.950;6.912;2022-07-23T11:55:49;7.93;;;5.60;;
18596;SDS011;9428;50.950;6.912;2022-07-23T11:58:36;6.50;;;4.88;;
18596;SDS011;9428;50.950;6.912;2022-07-23T12:01:24;7.05;;;4.93;;
18596;SDS011;9428;50.950;6.912;2022-07-23T12:04:13;7.63;;;4.70;;
18596;SDS011;9428;50.950;6.912;2022-07-23T12:07:00;8.15;;;4.53;;
18596;SDS011;9428;50.950;6.912;2022-07-23T12:09:48;7.53;;;5.00;;
18596;SDS011;9428;50.950;6.912;2022-07-23T12:12:35;6.13;;;4.72;;
18596;SDS011;9428;50.950;6.912;2022-07-23T12:15:25;7.28;;;4.68;;
18596;SDS011;9428;50.950;6.912;2022-07-23T12:18:15;4.78;;;3.50;;
18596;SDS011;9428;50.950;6.912;2022-07-23T12:21:06;8.02;;;4.63;;
18596;SDS011;9428;50.950;6.912;2022-07-23T12:24:04;8.10;;;4.68;;
18596;SDS011;9428;50.950;6.912;2022-07-23T12:27:07;7.63;;;4.22;;
18596;SDS011;9428;50.950;6.912;2022-07-23T12:29:55;6.38;;;4.32;;
18596;SDS011;9428;50.950;6.912;2022-07-23T12:32:42;5.70;;;4.28;;
18596;SDS011;9428;50.950;6.912;2022-07-23T12:35:32;6.22;;;4.40;;
18596;SDS011;9428;50.950;6.912;2022-07-23T12:38:24;5.85;;;4.53;;
18596;SDS011;9428;50.950;6.912;2022-07-23T12:41:12;5.38;;;4.15;;
18596;SDS011;9428;50.950;6.912;2022-07-23T12:43:59;5.22;;;4.60;;
18596;SDS011;9428;50.950;6.912;2022-07-23T12:47:04;5.45;;;3.90;;
18596;SDS011;9428;50.950;6.912;2022-07-23T12:49:51;5.13;;;4.25;;
18596;SDS011;9428;50.950;6.912;2022-07-23T12:52:39;4.55;;;3.97;;
18596;SDS011;9428;50.950;6.912;2022-07-23T12:55:28;5.13;;;4.15;;
18596;SDS011;9428;50.950;6.912;2022-07-23T12:58:16;7.68;;;4.15;;
18596;SDS011;9428;50.950;6.912;2022-07-23T13:01:04;4.80;;;3.83;;
18596;SDS011;9428;50.950;6.912;2022-07-23T13:03:55;7.22;;;4.07;;
18596;SDS011;9428;50.950;6.912;2022-07-23T13:06:49;7.00;;;3.75;;
18596;SDS011;9428;50.950;6.912;2022-07-23T13:09:37;4.28;;;3.67;;
18596;SDS011;9428;50.950;6.912;2022-07-23T13:12:26;5.60;;;3.60;;
18596;SDS011;9428;50.950;6.912;2022-07-23T13:15:13;4.53;;;3.00;;
18596;SDS011;9428;50.950;6.912;2022-07-23T13:18:00;5.50;;;3.38;;
18596;SDS011;9428;50.950;6.912;2022-07-23T13:20:48;4.10;;;3.17;;
18596;SDS011;9428;50.950;6.912;2022-07-23T13:23:36;4.15;;;3.75;;
18596;SDS011;9428;50.950;6.912;2022-07-23T13:26:23;4.85;;;3.53;;
18596;SDS011;9428;50.950;6.912;2022-07-23T13:29:12;3.20;;;2.90;;
18596;SDS011;9428;50.950;6.912;2022-07-23T13:32:00;4.68;;;3.38;;
18596;SDS011;9428;50.950;6.912;2022-07-23T13:34:47;4.22;;;3.25;;
18596;SDS011;9428;50.950;6.912;2022-07-23T13:37:34;6.45;;;3.08;;
18596;SDS011;9428;50.950;6.912;2022-07-23T13:40:21;4.22;;;3.40;;
18596;SDS011;9428;50.950;6.912;2022-07-23T13:43:09;5.50;;;3.20;;
18596;SDS011;9428;50.950;6.912;2022-07-23T13:45:58;7.03;;;3.25;;
18596;SDS011;9428;50.950;6.912;2022-07-23T13:48:46;3.83;;;2.78;;
18596;SDS011;9428;50.950;6.912;2022-07-23T13:51:33;4.53;;;3.10;;
18596;SDS011;9428;50.950;6.912;2022-07-23T13:54:20;4.00;;;2.55;;
18596;SDS011;9428;50.950;6.912;2022-07-23T13:57:08;3.40;;;3.10;;
18596;SDS011;9428;50.950;6.912;2022-07-23T13:59:55;6.90;;;3.10;;
18596;SDS011;9428;50.950;6.912;2022-07-23T14:02:44;3.78;;;3.05;;
18596;SDS011;9428;50.950;6.912;2022-07-23T14:05:31;3.72;;;2.60;;
18596;SDS011;9428;50.950;6.912;2022-07-23T14:08:19;4.75;;;3.10;;
18596;SDS011;9428;50.950;6.912;2022-07-23T14:11:06;4.43;;;3.25;;
18596;SDS011;9428;50.950;6.912;2022-07-23T14:13:54;4.13;;;2.80;;
18596;SDS011;9428;50.950;6.912;2022-07-23T14:16:41;4.55;;;2.75;;
18596;SDS011;9428;50.950;6.912;2022-07-23T14:19:30;4.53;;;3.10;;
18596;SDS011;9428;50.950;6.912;2022-07-23T14:22:17;3.38;;;2.60;;
18596;SDS011;9428;50.950;6.912;2022-07-23T14:25:05;4.28;;;2.90;;
18596;SDS011;9428;50.950;6.912;2022-07-23T14:27:53;4.97;;;2.58;;
18596;SDS011;9428;50.950;6.912;2022-07-23T14:30:41;4.70;;;2.90;;
18596;SDS011;9428;50.950;6.912;2022-07-23T14:33:29;4.53;;;3.55;;
18596;SDS011;9428;50.950;6.912;2022-07-23T14:36:17;3.83;;;2.58;;
18596;SDS011;9428;50.950;6.912;2022-07-23T14:39:05;13.25;;;7.82;;
18596;SDS011;9428;50.950;6.912;2022-07-23T14:41:53;23.48;;;10.95;;
18596;SDS011;9428;50.950;6.912;2022-07-23T14:44:41;26.90;;;11.25;;
18596;SDS011;9428;50.950;6.912;2022-07-23T14:47:28;15.40;;;7.20;;
18596;SDS011;9428;50.950;6.912;2022-07-23T14:50:16;12.02;;;7.15;;
18596;SDS011;9428;50.950;6.912;2022-07-23T14:53:04;7.38;;;4.05;;
18596;SDS011;9428;50.950;6.912;2022-07-23T14:55:52;5.47;;;3.55;;
18596;SDS011;9428;50.950;6.912;2022-07-23T14:58:40;3.70;;;3.10;;
18596;SDS011;9428;50.950;6.912;2022-07-23T15:01:27;5.93;;;3.28;;
18596;SDS011;9428;50.950;6.912;2022-07-23T15:04:15;6.18;;;4.28;;
18596;SDS011;9428;50.950;6.912;2022-07-23T15:07:02;5.80;;;4.53;;
18596;SDS011;9428;50.950;6.912;2022-07-23T15:09:51;11.25;;;6.15;;
18596;SDS011;9428;50.950;6.912;2022-07-23T15:12:38;3.10;;;2.80;;
18596;SDS011;9428;50.950;6.912;2022-07-23T15:15:25;6.03;;;3.10;;
18596;SDS011;9428;50.950;6.912;2022-07-23T15:18:12;3.22;;;2.72;;
18596;SDS011;9428;50.950;6.912;2022-07-23T15:21:00;7.63;;;4.50;;
18596;SDS011;9428;50.950;6.912;2022-07-23T15:23:48;12.10;;;4.43;;
18596;SDS011;9428;50.950;6.912;2022-07-23T15:26:36;7.68;;;3.80;;
18596;SDS011;9428;50.950;6.912;2022-07-23T15:29:24;4.28;;;2.58;;
18596;SDS011;9428;50.950;6.912;2022-07-23T15:32:11;5.90;;;3.20;;
18596;SDS011;9428;50.950;6.912;2022-07-23T15:34:58;3.47;;;2.80;;
18596;SDS011;9428;50.950;6.912;2022-07-23T15:37:46;3.75;;;2.47;;
18596;SDS011;9428;50.950;6.912;2022-07-23T15:40:33;4.88;;;2.90;;
18596;SDS011;9428;50.950;6.912;2022-07-23T15:43:22;5.15;;;2.90;;
18596;SDS011;9428;50.950;6.912;2022-07-23T15:46:11;3.80;;;2.67;;
18596;SDS011;9428;50.950;6.912;2022-07-23T15:48:58;4.38;;;2.53;;
18596;SDS011;9428;50.950;6.912;2022-07-23T15:51:45;4.78;;;3.20;;
18596;SDS011;9428;50.950;6.912;2022-07-23T15:54:32;7.72;;;3.20;;
18596;SDS011;9428;50.950;6.912;2022-07-23T15:57:20;5.55;;;3.30;;
18596;SDS011;9428;50.950;6.912;2022-07-23T16:00:09;5.25;;;3.30;;
18596;SDS011;9428;50.950;6.912;2022-07-23T16:02:57;4.68;;;2.80;;
18596;SDS011;9428;50.950;6.912;2022-07-23T16:05:44;5.03;;;2.45;;
18596;SDS011;9428;50.950;6.912;2022-07-23T16:08:32;3.03;;;2.20;;
18596;SDS011;9428;50.950;6.912;2022-07-23T16:11:20;3.40;;;2.58;;
18596;SDS011;9428;50.950;6.912;2022-07-23T16:14:07;3.88;;;2.58;;
18596;SDS011;9428;50.950;6.912;2022-07-23T16:16:56;3.63;;;2.63;;
18596;SDS011;9428;50.950;6.912;2022-07-23T16:19:43;4.35;;;2.30;;
18596;SDS011;9428;50.950;6.912;2022-07-23T16:22:32;4.25;;;3.45;;
18596;SDS011;9428;50.950;6.912;2022-07-23T16:25:19;4.57;;;3.03;;
18596;SDS011;9428;50.950;6.912;2022-07-23T16:28:06;5.93;;;3.08;;
18596;SDS011;9428;50.950;6.912;2022-07-23T16:30:54;3.13;;;2.38;;
18596;SDS011;9428;50.950;6.912;2022-07-23T16:33:42;5.95;;;2.85;;
18596;SDS011;9428;50.950;6.912;2022-07-23T16:36:30;3.35;;;2.50;;
18596;SDS011;9428;50.950;6.912;2022-07-23T16:39:18;3.83;;;2.80;;
18596;SDS011;9428;50.950;6.912;2022-07-23T16:42:05;4.03;;;2.65;;
18596;SDS011;9428;50.950;6.912;2022-07-23T16:44:53;4.05;;;2.63;;
18596;SDS011;9428;50.950;6.912;2022-07-23T16:47:41;3.85;;;2.70;;
18596;SDS011;9428;50.950;6.912;2022-07-23T16:50:29;3.60;;;2.55;;
18596;SDS011;9428;50.950;6.912;2022-07-23T16:53:16;4.43;;;2.20;;
18596;SDS011;9428;50.950;6.912;2022-07-23T16:56:04;4.22;;;2.78;;
18596;SDS011;9428;50.950;6.912;2022-07-23T16:58:52;7.25;;;4.50;;